sensor_id;sensor_type;location;lat;lon;timestamp;P1;durP1;ratioP1;P2;durP2;ratioP2
33453;SDS011;39400;49.744;7.012;2023-02-03T00:01:51;4.18;;;2.20;;
33453;SDS011;39400;49.744;7.012;2023-02-03T00:04:16;3.33;;;2.22;;
33453;SDS011;39400;49.744;7.012;2023-02-03T00:06:41;4.03;;;3.05;;
33453;SDS011;39400;49.744;7.012;2023-02-03T00:09:07;3.72;;;2.30;;
33453;SDS011;39400;49.744;7.012;2023-02-03T00:11:33;3.90;;;1.80;;
33453;SDS011;39400;49.744;7.012;2023-02-03T00:13:58;4.28;;;2.53;;
33453;SDS011;39400;49.744;7.012;2023-02-03T00:16:23;6.95;;;2.22;;
33453;SDS011;39400;49.744;7.012;2023-02-03T00:18:49;3.30;;;1.98;;
33453;SDS011;39400;49.744;7.012;2023-02-03T00:21:14;3.03;;;2.03;;
33453;SDS011;39400;49.744;7.012;2023-02-03T00:23:40;3.97;;;1.98;;
33453;SDS011;39400;49.744;7.012;2023-02-03T00:26:09;3.20;;;1.98;;
33453;SDS011;39400;49.744;7.012;2023-02-03T00:28:38;3.03;;;1.85;;
33453;SDS011;39400;49.744;7.012;2023-02-03T00:31:03;2.97;;;1.80;;
33453;SDS011;39400;49.744;7.012;2023-02-03T00:33:29;7.35;;;2.55;;
33453;SDS011;39400;49.744;7.012;2023-02-03T00:35:54;2.63;;;1.75;;
33453;SDS011;39400;49.744;7.012;2023-02-03T00:38:19;4.30;;;2.33;;
33453;SDS011;39400;49.744;7.012;2023-02-03T00:40:51;3.55;;;1.90;;
33453;SDS011;39400;49.744;7.012;2023-02-03T00:43:17;7.00;;;2.83;;
33453;SDS011;39400;49.744;7.012;2023-02-03T00:45:43;3.35;;;2.42;;
33453;SDS011;39400;49.744;7.012;2023-02-03T00:48:08;6.35;;;2.78;;
33453;SDS011;39400;49.744;7.012;2023-02-03T00:50:33;3.03;;;1.92;;
33453;SDS011;39400;49.744;7.012;2023-02-03T00:52:58;3.53;;;2.15;;
33453;SDS011;39400;49.744;7.012;2023-02-03T00:55:24;3.78;;;2.15;;
33453;SDS011;39400;49.744;7.012;2023-02-03T00:57:49;2.30;;;2.10;;
33453;SDS011;39400;49.744;7.012;2023-02-03T01:00:15;3.58;;;2.45;;
33453;SDS011;39400;49.744;7.012;2023-02-03T01:02:41;5.20;;;2.20;;
33453;SDS011;39400;49.744;7.012;2023-02-03T01:05:06;3.22;;;1.90;;
33453;SDS011;39400;49.744;7.012;2023-02-03T01:07:32;3.33;;;1.65;;
33453;SDS011;39400;49.744;7.012;2023-02-03T01:09:57;5.95;;;2.75;;
33453;SDS011;39400;49.744;7.012;2023-02-03T01:12:23;3.35;;;2.10;;
33453;SDS011;39400;49.744;7.012;2023-02-03T01:14:48;3.40;;;1.80;;
33453;SDS011;39400;49.744;7.012;2023-02-03T01:17:15;4.35;;;1.83;;
33453;SDS011;39400;49.744;7.012;2023-02-03T01:19:40;3.08;;;1.70;;
33453;SDS011;39400;49.744;7.012;2023-02-03T01:22:05;6.47;;;2.22;;
33453;SDS011;39400;49.744;7.012;2023-02-03T01:24:31;5.10;;;2.00;;
33453;SDS011;39400;49.744;7.012;2023-02-03T01:26:56;2.75;;;1.90;;
33453;SDS011;39400;49.744;7.012;2023-02-03T01:29:21;3.25;;;2.33;;
33453;SDS011;39400;49.744;7.012;2023-02-03T01:31:48;4.32;;;2.20;;
33453;SDS011;39400;49.744;7.012;2023-02-03T01:34:13;2.75;;;1.92;;
33453;SDS011;39400;49.744;7.012;2023-02-03T01:36:39;4.50;;;2.00;;
33453;SDS011;39400;49.744;7.012;2023-02-03T01:39:04;3.53;;;1.77;;
33453;SDS011;39400;49.744;7.012;2023-02-03T01:41:31;4.07;;;1.77;;
33453;SDS011;39400;49.744;7.012;2023-02-03T01:43:59;2.73;;;2.30;;
33453;SDS011;39400;49.744;7.012;2023-02-03T01:49:10;2.28;;;1.77;;
33453;SDS011;39400;49.744;7.012;2023-02-03T01:51:41;3.35;;;1.90;;
33453;SDS011;39400;49.744;7.012;2023-02-03T01:54:13;2.25;;;1.95;;
33453;SDS011;39400;49.744;7.012;2023-02-03T01:56:44;2.38;;;1.90;;
33453;SDS011;39400;49.744;7.012;2023-02-03T01:59:13;2.53;;;1.65;;
33453;SDS011;39400;49.744;7.012;2023-02-03T02:01:41;2.30;;;1.80;;
33453;SDS011;39400;49.744;7.012;2023-02-03T02:04:07;5.68;;;2.15;;
33453;SDS011;39400;49.744;7.012;2023-02-03T02:06:34;5.60;;;2.75;;
33453;SDS011;39400;49.744;7.012;2023-02-03T02:08:59;2.63;;;2.00;;
33453;SDS011;39400;49.744;7.012;2023-02-03T02:11:26;2.55;;;2.00;;
33453;SDS011;39400;49.744;7.012;2023-02-03T02:13:52;7.30;;;2.60;;
33453;SDS011;39400;49.744;7.012;2023-02-03T02:16:23;4.53;;;2.42;;
33453;SDS011;39400;49.744;7.012;2023-02-03T02:27:28;4.85;;;2.97;;
33453;SDS011;39400;49.744;7.012;2023-02-03T02:30:17;4.43;;;3.13;;
33453;SDS011;39400;49.744;7.012;2023-02-03T02:33:01;9.07;;;3.67;;
33453;SDS011;39400;49.744;7.012;2023-02-03T02:38:44;4.88;;;3.05;;
33453;SDS011;39400;49.744;7.012;2023-02-03T02:41:43;6.20;;;3.45;;
33453;SDS011;39400;49.744;7.012;2023-02-03T02:44:24;5.57;;;3.95;;
33453;SDS011;39400;49.744;7.012;2023-02-03T02:46:57;8.20;;;3.70;;
33453;SDS011;39400;49.744;7.012;2023-02-03T02:52:06;7.15;;;3.28;;
33453;SDS011;39400;49.744;7.012;2023-02-03T02:54:33;4.78;;;3.42;;
33453;SDS011;39400;49.744;7.012;2023-02-03T02:57:05;5.88;;;3.60;;
33453;SDS011;39400;49.744;7.012;2023-02-03T02:59:35;7.40;;;3.85;;
33453;SDS011;39400;49.744;7.012;2023-02-03T03:02:01;7.53;;;3.10;;
33453;SDS011;39400;49.744;7.012;2023-02-03T03:04:26;6.20;;;3.15;;
33453;SDS011;39400;49.744;7.012;2023-02-03T03:07:30;6.18;;;4.00;;
33453;SDS011;39400;49.744;7.012;2023-02-03T03:09:52;7.80;;;3.83;;
33453;SDS011;39400;49.744;7.012;2023-02-03T03:12:33;7.82;;;5.53;;
33453;SDS011;39400;49.744;7.012;2023-02-03T03:15:03;3.90;;;2.90;;
33453;SDS011;39400;49.744;7.012;2023-02-03T03:17:34;7.90;;;4.10;;
33453;SDS011;39400;49.744;7.012;2023-02-03T03:20:06;7.13;;;4.10;;
33453;SDS011;39400;49.744;7.012;2023-02-03T03:22:38;6.07;;;3.38;;
33453;SDS011;39400;49.744;7.012;2023-02-03T03:25:16;7.45;;;3.60;;
33453;SDS011;39400;49.744;7.012;2023-02-03T03:27:48;8.50;;;4.00;;
33453;SDS011;39400;49.744;7.012;2023-02-03T03:30:22;7.78;;;3.47;;
33453;SDS011;39400;49.744;7.012;2023-02-03T03:32:53;9.38;;;3.25;;
33453;SDS011;39400;49.744;7.012;2023-02-03T03:35:19;5.28;;;3.50;;
33453;SDS011;39400;49.744;7.012;2023-02-03T03:37:50;5.45;;;3.10;;
33453;SDS011;39400;49.744;7.012;2023-02-03T03:40:23;5.50;;;2.97;;
33453;SDS011;39400;49.744;7.012;2023-02-03T03:48:21;4.85;;;3.55;;
33453;SDS011;39400;49.744;7.012;2023-02-03T03:50:56;6.13;;;3.60;;
33453;SDS011;39400;49.744;7.012;2023-02-03T03:53:26;6.28;;;4.20;;
33453;SDS011;39400;49.744;7.012;2023-02-03T03:55:54;6.03;;;3.90;;
33453;SDS011;39400;49.744;7.012;2023-02-03T03:58:24;5.30;;;3.45;;
33453;SDS011;39400;49.744;7.012;2023-02-03T04:00:54;4.68;;;3.25;;
33453;SDS011;39400;49.744;7.012;2023-02-03T04:03:24;7.22;;;4.07;;
33453;SDS011;39400;49.744;7.012;2023-02-03T04:05:54;5.45;;;3.70;;
33453;SDS011;39400;49.744;7.012;2023-02-03T04:08:19;7.40;;;4.18;;
33453;SDS011;39400;49.744;7.012;2023-02-03T04:10:45;5.93;;;3.88;;
33453;SDS011;39400;49.744;7.012;2023-02-03T04:13:10;8.40;;;4.22;;
33453;SDS011;39400;49.744;7.012;2023-02-03T04:15:36;7.03;;;4.60;;
33453;SDS011;39400;49.744;7.012;2023-02-03T04:18:02;5.97;;;3.65;;
33453;SDS011;39400;49.744;7.012;2023-02-03T04:20:29;6.75;;;3.88;;
33453;SDS011;39400;49.744;7.012;2023-02-03T04:22:55;8.80;;;4.50;;
33453;SDS011;39400;49.744;7.012;2023-02-03T04:25:21;6.57;;;3.95;;
33453;SDS011;39400;49.744;7.012;2023-02-03T04:27:47;5.47;;;3.60;;
33453;SDS011;39400;49.744;7.012;2023-02-03T04:30:12;6.13;;;3.00;;
33453;SDS011;39400;49.744;7.012;2023-02-03T04:32:38;7.65;;;3.65;;
33453;SDS011;39400;49.744;7.012;2023-02-03T04:35:04;7.97;;;3.97;;
33453;SDS011;39400;49.744;7.012;2023-02-03T04:37:30;6.53;;;3.85;;
33453;SDS011;39400;49.744;7.012;2023-02-03T04:39:56;6.93;;;3.28;;
33453;SDS011;39400;49.744;7.012;2023-02-03T04:42:22;6.05;;;3.55;;
33453;SDS011;39400;49.744;7.012;2023-02-03T04:44:48;10.98;;;3.42;;
33453;SDS011;39400;49.744;7.012;2023-02-03T04:47:13;6.80;;;4.00;;
33453;SDS011;39400;49.744;7.012;2023-02-03T04:49:39;9.80;;;3.88;;
33453;SDS011;39400;49.744;7.012;2023-02-03T04:52:04;6.55;;;3.63;;
33453;SDS011;39400;49.744;7.012;2023-02-03T04:54:30;6.25;;;3.30;;
33453;SDS011;39400;49.744;7.012;2023-02-03T04:56:55;9.63;;;3.67;;
33453;SDS011;39400;49.744;7.012;2023-02-03T04:59:20;8.98;;;3.22;;
33453;SDS011;39400;49.744;7.012;2023-02-03T05:01:46;8.25;;;3.90;;
33453;SDS011;39400;49.744;7.012;2023-02-03T05:04:11;9.30;;;4.28;;
33453;SDS011;39400;49.744;7.012;2023-02-03T05:06:37;6.38;;;3.50;;
33453;SDS011;39400;49.744;7.012;2023-02-03T05:09:02;5.15;;;3.15;;
33453;SDS011;39400;49.744;7.012;2023-02-03T05:11:27;5.47;;;3.22;;
33453;SDS011;39400;49.744;7.012;2023-02-03T05:13:53;8.52;;;3.15;;
33453;SDS011;39400;49.744;7.012;2023-02-03T05:16:18;7.38;;;3.47;;
33453;SDS011;39400;49.744;7.012;2023-02-03T05:18:44;2.92;;;2.28;;
33453;SDS011;39400;49.744;7.012;2023-02-03T05:21:09;4.05;;;2.65;;
33453;SDS011;39400;49.744;7.012;2023-02-03T05:23:34;5.00;;;2.67;;
33453;SDS011;39400;49.744;7.012;2023-02-03T05:26:00;4.55;;;3.00;;
33453;SDS011;39400;49.744;7.012;2023-02-03T05:28:25;4.72;;;2.20;;
33453;SDS011;39400;49.744;7.012;2023-02-03T05:30:51;4.20;;;2.35;;
33453;SDS011;39400;49.744;7.012;2023-02-03T05:33:16;4.32;;;2.10;;
33453;SDS011;39400;49.744;7.012;2023-02-03T05:35:41;4.50;;;2.08;;
33453;SDS011;39400;49.744;7.012;2023-02-03T05:38:07;4.20;;;2.40;;
33453;SDS011;39400;49.744;7.012;2023-02-03T05:40:32;5.35;;;2.03;;
33453;SDS011;39400;49.744;7.012;2023-02-03T05:42:57;5.03;;;2.85;;
33453;SDS011;39400;49.744;7.012;2023-02-03T05:45:22;6.63;;;2.47;;
33453;SDS011;39400;49.744;7.012;2023-02-03T05:47:48;8.40;;;3.45;;
33453;SDS011;39400;49.744;7.012;2023-02-03T05:50:13;5.95;;;2.20;;
33453;SDS011;39400;49.744;7.012;2023-02-03T05:52:39;5.70;;;2.15;;
33453;SDS011;39400;49.744;7.012;2023-02-03T05:55:04;3.28;;;2.00;;
33453;SDS011;39400;49.744;7.012;2023-02-03T05:57:30;6.57;;;2.70;;
33453;SDS011;39400;49.744;7.012;2023-02-03T05:59:55;4.97;;;2.22;;
33453;SDS011;39400;49.744;7.012;2023-02-03T06:02:20;7.65;;;2.58;;
33453;SDS011;39400;49.744;7.012;2023-02-03T06:04:46;3.83;;;2.38;;
33453;SDS011;39400;49.744;7.012;2023-02-03T06:07:11;5.00;;;2.08;;
33453;SDS011;39400;49.744;7.012;2023-02-03T06:09:36;4.47;;;2.00;;
33453;SDS011;39400;49.744;7.012;2023-02-03T06:12:02;5.00;;;2.33;;
33453;SDS011;39400;49.744;7.012;2023-02-03T06:14:27;4.43;;;2.03;;
33453;SDS011;39400;49.744;7.012;2023-02-03T06:16:52;3.53;;;1.98;;
33453;SDS011;39400;49.744;7.012;2023-02-03T06:19:18;4.82;;;1.83;;
33453;SDS011;39400;49.744;7.012;2023-02-03T06:21:43;3.72;;;1.90;;
33453;SDS011;39400;49.744;7.012;2023-02-03T06:24:09;7.28;;;2.65;;
33453;SDS011;39400;49.744;7.012;2023-02-03T06:26:35;9.02;;;2.67;;
33453;SDS011;39400;49.744;7.012;2023-02-03T06:29:00;7.00;;;2.97;;
33453;SDS011;39400;49.744;7.012;2023-02-03T06:31:25;3.17;;;2.05;;
33453;SDS011;39400;49.744;7.012;2023-02-03T06:33:51;4.05;;;2.50;;
33453;SDS011;39400;49.744;7.012;2023-02-03T06:36:16;3.90;;;2.35;;
33453;SDS011;39400;49.744;7.012;2023-02-03T06:38:41;4.68;;;2.15;;
33453;SDS011;39400;49.744;7.012;2023-02-03T06:41:07;4.18;;;2.20;;
33453;SDS011;39400;49.744;7.012;2023-02-03T06:43:32;4.15;;;2.20;;
33453;SDS011;39400;49.744;7.012;2023-02-03T06:45:57;5.95;;;2.33;;
33453;SDS011;39400;49.744;7.012;2023-02-03T06:48:23;4.10;;;1.92;;
33453;SDS011;39400;49.744;7.012;2023-02-03T06:50:48;6.63;;;2.63;;
33453;SDS011;39400;49.744;7.012;2023-02-03T06:53:13;3.55;;;2.03;;
33453;SDS011;39400;49.744;7.012;2023-02-03T06:55:39;4.20;;;2.00;;
33453;SDS011;39400;49.744;7.012;2023-02-03T06:58:04;4.57;;;2.03;;
33453;SDS011;39400;49.744;7.012;2023-02-03T07:00:29;5.22;;;1.63;;
33453;SDS011;39400;49.744;7.012;2023-02-03T07:02:56;3.95;;;1.90;;
33453;SDS011;39400;49.744;7.012;2023-02-03T07:05:22;3.67;;;1.90;;
33453;SDS011;39400;49.744;7.012;2023-02-03T07:07:48;9.15;;;2.95;;
33453;SDS011;39400;49.744;7.012;2023-02-03T07:10:15;10.50;;;3.15;;
33453;SDS011;39400;49.744;7.012;2023-02-03T07:12:40;9.18;;;4.72;;
33453;SDS011;39400;49.744;7.012;2023-02-03T07:15:06;6.55;;;3.50;;
33453;SDS011;39400;49.744;7.012;2023-02-03T07:17:31;4.32;;;2.33;;
33453;SDS011;39400;49.744;7.012;2023-02-03T07:19:57;12.25;;;4.68;;
33453;SDS011;39400;49.744;7.012;2023-02-03T07:22:22;13.18;;;5.30;;
33453;SDS011;39400;49.744;7.012;2023-02-03T07:24:47;7.50;;;3.45;;
33453;SDS011;39400;49.744;7.012;2023-02-03T07:27:13;13.90;;;5.30;;
33453;SDS011;39400;49.744;7.012;2023-02-03T07:29:38;8.90;;;3.90;;
33453;SDS011;39400;49.744;7.012;2023-02-03T07:32:03;15.80;;;6.07;;
33453;SDS011;39400;49.744;7.012;2023-02-03T07:34:28;12.75;;;5.68;;
33453;SDS011;39400;49.744;7.012;2023-02-03T07:36:54;12.80;;;4.72;;
33453;SDS011;39400;49.744;7.012;2023-02-03T07:39:20;10.27;;;4.35;;
33453;SDS011;39400;49.744;7.012;2023-02-03T07:41:45;5.75;;;2.75;;
33453;SDS011;39400;49.744;7.012;2023-02-03T07:44:11;8.20;;;2.10;;
33453;SDS011;39400;49.744;7.012;2023-02-03T07:46:36;5.53;;;2.03;;
33453;SDS011;39400;49.744;7.012;2023-02-03T07:49:01;4.88;;;1.90;;
33453;SDS011;39400;49.744;7.012;2023-02-03T07:51:27;6.15;;;2.47;;
33453;SDS011;39400;49.744;7.012;2023-02-03T07:53:52;2.83;;;2.03;;
33453;SDS011;39400;49.744;7.012;2023-02-03T07:56:17;2.30;;;1.70;;
33453;SDS011;39400;49.744;7.012;2023-02-03T07:58:43;2.50;;;1.50;;
33453;SDS011;39400;49.744;7.012;2023-02-03T08:01:09;2.40;;;1.45;;
33453;SDS011;39400;49.744;7.012;2023-02-03T08:03:38;1.55;;;1.38;;
33453;SDS011;39400;49.744;7.012;2023-02-03T08:06:04;3.17;;;1.40;;
33453;SDS011;39400;49.744;7.012;2023-02-03T08:08:30;2.53;;;1.52;;
33453;SDS011;39400;49.744;7.012;2023-02-03T08:10:55;1.67;;;1.30;;
33453;SDS011;39400;49.744;7.012;2023-02-03T08:13:20;4.85;;;2.10;;
33453;SDS011;39400;49.744;7.012;2023-02-03T08:15:46;7.63;;;3.35;;
33453;SDS011;39400;49.744;7.012;2023-02-03T08:18:12;8.98;;;3.13;;
33453;SDS011;39400;49.744;7.012;2023-02-03T08:20:37;3.13;;;2.17;;
33453;SDS011;39400;49.744;7.012;2023-02-03T08:23:02;4.25;;;2.47;;
33453;SDS011;39400;49.744;7.012;2023-02-03T08:25:28;3.95;;;2.30;;
33453;SDS011;39400;49.744;7.012;2023-02-03T08:27:53;5.82;;;1.80;;
33453;SDS011;39400;49.744;7.012;2023-02-03T08:30:18;2.75;;;1.90;;
33453;SDS011;39400;49.744;7.012;2023-02-03T08:32:43;4.05;;;1.90;;
33453;SDS011;39400;49.744;7.012;2023-02-03T08:35:09;3.95;;;2.33;;
33453;SDS011;39400;49.744;7.012;2023-02-03T08:37:34;4.65;;;1.55;;
33453;SDS011;39400;49.744;7.012;2023-02-03T08:40:00;5.13;;;2.13;;
33453;SDS011;39400;49.744;7.012;2023-02-03T08:42:25;3.10;;;2.17;;
33453;SDS011;39400;49.744;7.012;2023-02-03T08:44:51;3.53;;;1.65;;
33453;SDS011;39400;49.744;7.012;2023-02-03T08:47:16;3.03;;;1.48;;
33453;SDS011;39400;49.744;7.012;2023-02-03T08:49:41;4.05;;;1.70;;
33453;SDS011;39400;49.744;7.012;2023-02-03T08:52:08;2.47;;;1.25;;
33453;SDS011;39400;49.744;7.012;2023-02-03T08:54:35;3.08;;;2.17;;
33453;SDS011;39400;49.744;7.012;2023-02-03T08:57:01;5.57;;;1.70;;
33453;SDS011;39400;49.744;7.012;2023-02-03T08:59:27;4.47;;;1.45;;
33453;SDS011;39400;49.744;7.012;2023-02-03T09:01:52;4.85;;;1.95;;
33453;SDS011;39400;49.744;7.012;2023-02-03T09:04:18;2.47;;;1.20;;
33453;SDS011;39400;49.744;7.012;2023-02-03T09:06:44;2.72;;;1.52;;
33453;SDS011;39400;49.744;7.012;2023-02-03T09:09:11;2.45;;;1.38;;
33453;SDS011;39400;49.744;7.012;2023-02-03T09:11:36;4.35;;;1.52;;
33453;SDS011;39400;49.744;7.012;2023-02-03T09:14:01;4.00;;;1.42;;
33453;SDS011;39400;49.744;7.012;2023-02-03T09:16:27;3.30;;;1.80;;
33453;SDS011;39400;49.744;7.012;2023-02-03T09:18:52;2.25;;;1.25;;
33453;SDS011;39400;49.744;7.012;2023-02-03T09:21:17;5.88;;;2.35;;
33453;SDS011;39400;49.744;7.012;2023-02-03T09:23:43;4.50;;;2.25;;
33453;SDS011;39400;49.744;7.012;2023-02-03T09:26:12;3.42;;;1.67;;
33453;SDS011;39400;49.744;7.012;2023-02-03T09:31:05;2.42;;;1.40;;
33453;SDS011;39400;49.744;7.012;2023-02-03T09:33:33;5.55;;;2.63;;
33453;SDS011;39400;49.744;7.012;2023-02-03T09:35:59;10.90;;;3.58;;
33453;SDS011;39400;49.744;7.012;2023-02-03T09:38:25;3.05;;;1.48;;
33453;SDS011;39400;49.744;7.012;2023-02-03T09:40:55;2.10;;;1.60;;
33453;SDS011;39400;49.744;7.012;2023-02-03T09:43:32;3.83;;;1.92;;
33453;SDS011;39400;49.744;7.012;2023-02-03T09:46:06;2.58;;;1.83;;
33453;SDS011;39400;49.744;7.012;2023-02-03T09:48:37;1.02;;;0.85;;
33453;SDS011;39400;49.744;7.012;2023-02-03T09:51:13;4.63;;;1.60;;
33453;SDS011;39400;49.744;7.012;2023-02-03T09:53:44;2.95;;;1.52;;
33453;SDS011;39400;49.744;7.012;2023-02-03T09:56:32;1.73;;;1.15;;
33453;SDS011;39400;49.744;7.012;2023-02-03T09:59:00;1.27;;;0.80;;
33453;SDS011;39400;49.744;7.012;2023-02-03T10:01:33;3.38;;;1.73;;
33453;SDS011;39400;49.744;7.012;2023-02-03T10:04:23;4.57;;;2.40;;
33453;SDS011;39400;49.744;7.012;2023-02-03T10:07:05;4.53;;;2.67;;
33453;SDS011;39400;49.744;7.012;2023-02-03T10:09:50;9.15;;;2.30;;
33453;SDS011;39400;49.744;7.012;2023-02-03T10:12:36;4.18;;;2.10;;
33453;SDS011;39400;49.744;7.012;2023-02-03T10:18:14;9.55;;;7.22;;
33453;SDS011;39400;49.744;7.012;2023-02-03T10:20:47;3.03;;;1.58;;
33453;SDS011;39400;49.744;7.012;2023-02-03T10:23:18;5.25;;;2.58;;
33453;SDS011;39400;49.744;7.012;2023-02-03T10:25:51;2.70;;;1.63;;
33453;SDS011;39400;49.744;7.012;2023-02-03T10:28:19;2.22;;;1.50;;
33453;SDS011;39400;49.744;7.012;2023-02-03T10:30:47;2.72;;;1.55;;
33453;SDS011;39400;49.744;7.012;2023-02-03T10:33:17;3.22;;;1.10;;
33453;SDS011;39400;49.744;7.012;2023-02-03T10:35:48;3.05;;;1.98;;
33453;SDS011;39400;49.744;7.012;2023-02-03T10:38:23;4.65;;;2.50;;
33453;SDS011;39400;49.744;7.012;2023-02-03T10:41:09;2.72;;;1.10;;
33453;SDS011;39400;49.744;7.012;2023-02-03T10:43:35;2.17;;;1.42;;
33453;SDS011;39400;49.744;7.012;2023-02-03T10:46:01;3.25;;;1.35;;
33453;SDS011;39400;49.744;7.012;2023-02-03T10:48:26;3.97;;;1.38;;
33453;SDS011;39400;49.744;7.012;2023-02-03T10:50:52;1.23;;;1.13;;
33453;SDS011;39400;49.744;7.012;2023-02-03T10:53:23;1.10;;;1.00;;
33453;SDS011;39400;49.744;7.012;2023-02-03T10:56:12;2.15;;;1.20;;
33453;SDS011;39400;49.744;7.012;2023-02-03T11:03:40;1.83;;;0.75;;
33453;SDS011;39400;49.744;7.012;2023-02-03T11:06:15;1.70;;;1.05;;
33453;SDS011;39400;49.744;7.012;2023-02-03T11:08:50;3.45;;;2.17;;
33453;SDS011;39400;49.744;7.012;2023-02-03T11:11:21;9.15;;;1.65;;
33453;SDS011;39400;49.744;7.012;2023-02-03T11:16:28;8.48;;;3.80;;
33453;SDS011;39400;49.744;7.012;2023-02-03T11:18:56;2.63;;;1.70;;
33453;SDS011;39400;49.744;7.012;2023-02-03T11:26:33;2.92;;;1.52;;
33453;SDS011;39400;49.744;7.012;2023-02-03T11:29:04;4.30;;;1.60;;
33453;SDS011;39400;49.744;7.012;2023-02-03T11:31:31;3.17;;;1.77;;
33453;SDS011;39400;49.744;7.012;2023-02-03T11:34:00;1.63;;;1.13;;
33453;SDS011;39400;49.744;7.012;2023-02-03T11:36:30;2.53;;;1.90;;
33453;SDS011;39400;49.744;7.012;2023-02-03T11:39:13;2.42;;;1.00;;
33453;SDS011;39400;49.744;7.012;2023-02-03T11:41:41;2.25;;;0.88;;
33453;SDS011;39400;49.744;7.012;2023-02-03T11:44:11;9.38;;;1.65;;
33453;SDS011;39400;49.744;7.012;2023-02-03T11:46:41;5.25;;;1.23;;
33453;SDS011;39400;49.744;7.012;2023-02-03T11:57:43;1.50;;;0.80;;
33453;SDS011;39400;49.744;7.012;2023-02-03T12:08:05;0.90;;;0.70;;
33453;SDS011;39400;49.744;7.012;2023-02-03T12:10:45;4.03;;;0.85;;
33453;SDS011;39400;49.744;7.012;2023-02-03T12:13:28;3.22;;;0.80;;
33453;SDS011;39400;49.744;7.012;2023-02-03T12:24:03;1.73;;;0.65;;
33453;SDS011;39400;49.744;7.012;2023-02-03T12:29:24;1.95;;;0.55;;
33453;SDS011;39400;49.744;7.012;2023-02-03T12:34:39;4.15;;;1.70;;
33453;SDS011;39400;49.744;7.012;2023-02-03T12:37:18;3.70;;;1.35;;
33453;SDS011;39400;49.744;7.012;2023-02-03T12:39:53;1.08;;;0.77;;
33453;SDS011;39400;49.744;7.012;2023-02-03T12:42:30;2.83;;;1.20;;
33453;SDS011;39400;49.744;7.012;2023-02-03T12:47:50;12.82;;;4.53;;
33453;SDS011;39400;49.744;7.012;2023-02-03T12:50:24;7.95;;;3.22;;
33453;SDS011;39400;49.744;7.012;2023-02-03T12:53:02;2.70;;;1.20;;
33453;SDS011;39400;49.744;7.012;2023-02-03T12:55:38;7.57;;;2.70;;
33453;SDS011;39400;49.744;7.012;2023-02-03T12:58:18;4.82;;;1.83;;
33453;SDS011;39400;49.744;7.012;2023-02-03T13:00:58;3.53;;;1.83;;
33453;SDS011;39400;49.744;7.012;2023-02-03T13:03:35;7.10;;;2.33;;
33453;SDS011;39400;49.744;7.012;2023-02-03T13:06:31;5.68;;;2.90;;
33453;SDS011;39400;49.744;7.012;2023-02-03T13:17:24;5.57;;;2.53;;
33453;SDS011;39400;49.744;7.012;2023-02-03T13:19:55;4.13;;;2.30;;
33453;SDS011;39400;49.744;7.012;2023-02-03T13:22:24;12.68;;;5.03;;
33453;SDS011;39400;49.744;7.012;2023-02-03T13:30:58;2.03;;;1.42;;
33453;SDS011;39400;49.744;7.012;2023-02-03T13:41:53;2.72;;;0.90;;
33453;SDS011;39400;49.744;7.012;2023-02-03T13:44:31;1.73;;;0.90;;
33453;SDS011;39400;49.744;7.012;2023-02-03T13:46:56;1.88;;;1.00;;
33453;SDS011;39400;49.744;7.012;2023-02-03T13:49:24;2.75;;;1.67;;
33453;SDS011;39400;49.744;7.012;2023-02-03T13:51:53;3.33;;;2.13;;
33453;SDS011;39400;49.744;7.012;2023-02-03T13:54:22;2.10;;;1.20;;
33453;SDS011;39400;49.744;7.012;2023-02-03T13:56:56;1.60;;;1.30;;
33453;SDS011;39400;49.744;7.012;2023-02-03T13:59:41;3.35;;;1.27;;
33453;SDS011;39400;49.744;7.012;2023-02-03T14:12:37;0.93;;;0.77;;
33453;SDS011;39400;49.744;7.012;2023-02-03T14:15:20;1.42;;;0.80;;
33453;SDS011;39400;49.744;7.012;2023-02-03T14:17:57;1.35;;;0.80;;
33453;SDS011;39400;49.744;7.012;2023-02-03T14:20:49;1.88;;;0.80;;
33453;SDS011;39400;49.744;7.012;2023-02-03T14:23:20;1.10;;;1.00;;
33453;SDS011;39400;49.744;7.012;2023-02-03T14:25:56;1.40;;;1.00;;
33453;SDS011;39400;49.744;7.012;2023-02-03T14:28:27;2.13;;;1.15;;
33453;SDS011;39400;49.744;7.012;2023-02-03T14:52:46;9.25;;;4.40;;
33453;SDS011;39400;49.744;7.012;2023-02-03T14:55:34;8.82;;;4.13;;
33453;SDS011;39400;49.744;7.012;2023-02-03T14:58:05;6.75;;;3.72;;
33453;SDS011;39400;49.744;7.012;2023-02-03T15:00:39;5.93;;;2.70;;
33453;SDS011;39400;49.744;7.012;2023-02-03T15:05:34;11.18;;;5.70;;
33453;SDS011;39400;49.744;7.012;2023-02-03T15:10:56;10.10;;;4.23;;
33453;SDS011;39400;49.744;7.012;2023-02-03T15:15:56;3.47;;;2.03;;
33453;SDS011;39400;49.744;7.012;2023-02-03T15:18:33;9.07;;;5.30;;
33453;SDS011;39400;49.744;7.012;2023-02-03T15:20:59;18.23;;;11.07;;
33453;SDS011;39400;49.744;7.012;2023-02-03T15:23:29;6.07;;;3.38;;
33453;SDS011;39400;49.744;7.012;2023-02-03T15:26:10;13.50;;;6.47;;
33453;SDS011;39400;49.744;7.012;2023-02-03T15:28:38;9.75;;;5.63;;
33453;SDS011;39400;49.744;7.012;2023-02-03T15:33:44;4.82;;;2.10;;
33453;SDS011;39400;49.744;7.012;2023-02-03T15:36:17;7.07;;;4.15;;
33453;SDS011;39400;49.744;7.012;2023-02-03T15:38:48;4.07;;;2.28;;
33453;SDS011;39400;49.744;7.012;2023-02-03T15:41:21;7.80;;;4.40;;
33453;SDS011;39400;49.744;7.012;2023-02-03T15:43:47;10.20;;;4.95;;
33453;SDS011;39400;49.744;7.012;2023-02-03T15:48:50;5.72;;;3.40;;
33453;SDS011;39400;49.744;7.012;2023-02-03T15:53:55;1.88;;;1.50;;
33453;SDS011;39400;49.744;7.012;2023-02-03T15:56:38;2.13;;;1.20;;
33453;SDS011;39400;49.744;7.012;2023-02-03T15:59:25;3.28;;;1.33;;
33453;SDS011;39400;49.744;7.012;2023-02-03T16:01:56;2.28;;;1.40;;
33453;SDS011;39400;49.744;7.012;2023-02-03T16:04:24;3.22;;;2.25;;
33453;SDS011;39400;49.744;7.012;2023-02-03T16:06:50;1.40;;;1.30;;
33453;SDS011;39400;49.744;7.012;2023-02-03T16:09:25;4.07;;;2.60;;
33453;SDS011;39400;49.744;7.012;2023-02-03T16:12:24;1.95;;;1.40;;
33453;SDS011;39400;49.744;7.012;2023-02-03T16:14:57;4.45;;;1.80;;
33453;SDS011;39400;49.744;7.012;2023-02-03T16:17:30;2.78;;;1.83;;
33453;SDS011;39400;49.744;7.012;2023-02-03T16:20:17;3.92;;;1.45;;
33453;SDS011;39400;49.744;7.012;2023-02-03T16:22:58;4.32;;;2.20;;
33453;SDS011;39400;49.744;7.012;2023-02-03T16:25:26;3.53;;;1.92;;
33453;SDS011;39400;49.744;7.012;2023-02-03T16:30:26;8.18;;;5.60;;
33453;SDS011;39400;49.744;7.012;2023-02-03T16:35:32;5.40;;;3.30;;
33453;SDS011;39400;49.744;7.012;2023-02-03T16:38:04;23.95;;;7.80;;
33453;SDS011;39400;49.744;7.012;2023-02-03T16:40:37;12.88;;;6.25;;
33453;SDS011;39400;49.744;7.012;2023-02-03T16:43:03;19.58;;;9.50;;
33453;SDS011;39400;49.744;7.012;2023-02-03T16:45:29;17.67;;;10.35;;
33453;SDS011;39400;49.744;7.012;2023-02-03T16:47:54;24.60;;;12.10;;
33453;SDS011;39400;49.744;7.012;2023-02-03T16:50:20;12.95;;;6.90;;
33453;SDS011;39400;49.744;7.012;2023-02-03T16:52:47;11.85;;;6.93;;
33453;SDS011;39400;49.744;7.012;2023-02-03T16:55:12;8.73;;;6.05;;
33453;SDS011;39400;49.744;7.012;2023-02-03T16:57:37;10.25;;;6.45;;
33453;SDS011;39400;49.744;7.012;2023-02-03T17:00:03;12.73;;;8.10;;
33453;SDS011;39400;49.744;7.012;2023-02-03T17:02:29;5.65;;;4.40;;
33453;SDS011;39400;49.744;7.012;2023-02-03T17:04:54;5.97;;;3.53;;
33453;SDS011;39400;49.744;7.012;2023-02-03T17:07:19;5.22;;;3.65;;
33453;SDS011;39400;49.744;7.012;2023-02-03T17:09:45;6.97;;;5.00;;
33453;SDS011;39400;49.744;7.012;2023-02-03T17:12:10;4.22;;;3.10;;
33453;SDS011;39400;49.744;7.012;2023-02-03T17:14:35;9.20;;;7.35;;
33453;SDS011;39400;49.744;7.012;2023-02-03T17:17:01;7.45;;;5.07;;
33453;SDS011;39400;49.744;7.012;2023-02-03T17:19:26;9.82;;;5.70;;
33453;SDS011;39400;49.744;7.012;2023-02-03T17:21:51;7.20;;;5.25;;
33453;SDS011;39400;49.744;7.012;2023-02-03T17:24:16;4.95;;;3.53;;
33453;SDS011;39400;49.744;7.012;2023-02-03T17:26:42;5.30;;;3.30;;